Ardmore, South Dakota
Current Conditions -  °F | °C
As of 5:53 AM on Sunday 21 Dec 2014 (Local Time) from KCUT Reporting Station
Clear Clear  
Wind Chill: 17°   Ceiling: Unl
Heat Index: 27°   Visibility: 10mi
Dew Point: 21°   Wind: 10mph
Humidity: 78%   Direction: 260°W
Pressure: 29.57"   Gusts: NA
Location:  43.1994°N, 103.759°W
Report Text: KCUT 211253Z AUTO 26009KT 10SM CLR M03/M06 A2957 RMK AO2 SLP040 T10281061
Loading
Personal Weather Stations






























Interactive Weather Map New forecast layout! Learn more

10-Day Weather Forecast

Advertisements
Track Severe Weather on mobile